Terminal Aerodrome Forecast
Issued by NWS

Home | Current Version | Previous Version | Text Only | Print | Product List | Glossary On
Versions: 1 2 3 4 5 6 7 8 9 10 11 12 13 14 15 16 17 18
000
FTUS46 KMTR 302345
TAFSTS
TAF
KSTS 302345Z 3100/3124 34014G19KT P6SM FEW030
     FM310200 32009KT P6SM FEW030
     FM310400 VRB03KT P6SM SKC
     FM311400 00000KT 6SM BR SCT001
     FM311730 24007KT P6SM SKC=

USA.gov is the U.S. government's official web portal to all federal, state and local government web resources and services.